sensor_id;sensor_type;location;lat;lon;timestamp;temperature;humidity
2957;DHT22;1488;51.548;7.222;2023-08-20T00:01:28;25.40;93.60
2957;DHT22;1488;51.548;7.222;2023-08-20T00:03:57;25.40;93.60
2957;DHT22;1488;51.548;7.222;2023-08-20T00:06:25;25.40;93.60
2957;DHT22;1488;51.548;7.222;2023-08-20T00:08:52;25.40;93.60
2957;DHT22;1488;51.548;7.222;2023-08-20T00:11:19;25.40;93.70
2957;DHT22;1488;51.548;7.222;2023-08-20T00:13:45;25.40;93.60
2957;DHT22;1488;51.548;7.222;2023-08-20T00:16:13;25.40;93.60
2957;DHT22;1488;51.548;7.222;2023-08-20T00:18:40;25.40;93.60
2957;DHT22;1488;51.548;7.222;2023-08-20T00:21:09;25.40;93.60
2957;DHT22;1488;51.548;7.222;2023-08-20T00:23:36;25.40;93.60
2957;DHT22;1488;51.548;7.222;2023-08-20T00:26:04;25.40;93.60
2957;DHT22;1488;51.548;7.222;2023-08-20T00:28:31;25.30;93.60
2957;DHT22;1488;51.548;7.222;2023-08-20T00:30:59;25.40;93.70
2957;DHT22;1488;51.548;7.222;2023-08-20T00:33:26;25.40;93.60
2957;DHT22;1488;51.548;7.222;2023-08-20T00:35:53;25.40;93.60
2957;DHT22;1488;51.548;7.222;2023-08-20T00:38:21;25.40;93.70
2957;DHT22;1488;51.548;7.222;2023-08-20T00:40:48;25.40;93.60
2957;DHT22;1488;51.548;7.222;2023-08-20T00:43:15;25.40;93.60
2957;DHT22;1488;51.548;7.222;2023-08-20T00:45:42;25.40;93.70
2957;DHT22;1488;51.548;7.222;2023-08-20T00:48:09;25.40;93.70
2957;DHT22;1488;51.548;7.222;2023-08-20T00:50:37;25.40;93.60
2957;DHT22;1488;51.548;7.222;2023-08-20T00:53:05;25.40;93.70
2957;DHT22;1488;51.548;7.222;2023-08-20T00:55:33;25.40;93.70
2957;DHT22;1488;51.548;7.222;2023-08-20T00:58:00;25.40;93.60
2957;DHT22;1488;51.548;7.222;2023-08-20T01:00:27;25.40;93.70
2957;DHT22;1488;51.548;7.222;2023-08-20T01:02:54;25.40;93.70
2957;DHT22;1488;51.548;7.222;2023-08-20T01:05:21;25.30;93.60
2957;DHT22;1488;51.548;7.222;2023-08-20T01:07:56;25.40;93.70
2957;DHT22;1488;51.548;7.222;2023-08-20T01:10:29;25.40;93.70
2957;DHT22;1488;51.548;7.222;2023-08-20T01:13:00;25.40;93.60
2957;DHT22;1488;51.548;7.222;2023-08-20T01:15:27;25.40;93.60
2957;DHT22;1488;51.548;7.222;2023-08-20T01:17:54;25.40;93.60
2957;DHT22;1488;51.548;7.222;2023-08-20T01:20:23;25.30;93.60
2957;DHT22;1488;51.548;7.222;2023-08-20T01:23:05;25.30;93.60
2957;DHT22;1488;51.548;7.222;2023-08-20T01:25:46;25.30;93.60
2957;DHT22;1488;51.548;7.222;2023-08-20T01:28:28;25.40;93.70
2957;DHT22;1488;51.548;7.222;2023-08-20T01:30:57;25.40;93.70
2957;DHT22;1488;51.548;7.222;2023-08-20T01:33:24;25.30;93.60
2957;DHT22;1488;51.548;7.222;2023-08-20T01:35:52;25.30;93.60
2957;DHT22;1488;51.548;7.222;2023-08-20T01:38:19;25.30;93.60
2957;DHT22;1488;51.548;7.222;2023-08-20T01:40:45;25.30;93.60
2957;DHT22;1488;51.548;7.222;2023-08-20T01:43:13;25.30;93.60
2957;DHT22;1488;51.548;7.222;2023-08-20T01:45:41;25.30;93.60
2957;DHT22;1488;51.548;7.222;2023-08-20T01:48:08;25.30;93.60
2957;DHT22;1488;51.548;7.222;2023-08-20T01:50:35;25.30;93.60
2957;DHT22;1488;51.548;7.222;2023-08-20T01:53:02;25.30;93.60
2957;DHT22;1488;51.548;7.222;2023-08-20T01:55:29;25.30;93.60
2957;DHT22;1488;51.548;7.222;2023-08-20T01:57:56;25.30;93.60
2957;DHT22;1488;51.548;7.222;2023-08-20T02:00:23;25.30;93.60
2957;DHT22;1488;51.548;7.222;2023-08-20T02:02:51;25.30;93.60
2957;DHT22;1488;51.548;7.222;2023-08-20T02:05:18;25.30;93.60
2957;DHT22;1488;51.548;7.222;2023-08-20T02:07:45;25.30;93.60
2957;DHT22;1488;51.548;7.222;2023-08-20T02:10:11;25.30;93.60
2957;DHT22;1488;51.548;7.222;2023-08-20T02:12:39;25.30;93.60
2957;DHT22;1488;51.548;7.222;2023-08-20T02:15:07;25.30;93.60
2957;DHT22;1488;51.548;7.222;2023-08-20T02:17:34;25.30;93.60
2957;DHT22;1488;51.548;7.222;2023-08-20T02:20:04;25.30;93.60
2957;DHT22;1488;51.548;7.222;2023-08-20T02:22:31;25.30;93.60
2957;DHT22;1488;51.548;7.222;2023-08-20T02:24:59;25.30;93.60
2957;DHT22;1488;51.548;7.222;2023-08-20T02:27:26;25.30;93.60
2957;DHT22;1488;51.548;7.222;2023-08-20T02:29:53;25.30;93.60
2957;DHT22;1488;51.548;7.222;2023-08-20T02:32:20;25.30;93.60
2957;DHT22;1488;51.548;7.222;2023-08-20T02:34:50;25.30;93.60
2957;DHT22;1488;51.548;7.222;2023-08-20T02:37:18;25.30;93.60
2957;DHT22;1488;51.548;7.222;2023-08-20T02:39:45;25.30;93.60
2957;DHT22;1488;51.548;7.222;2023-08-20T02:42:11;25.30;93.60
2957;DHT22;1488;51.548;7.222;2023-08-20T02:44:38;25.30;93.60
2957;DHT22;1488;51.548;7.222;2023-08-20T02:47:05;25.30;93.60
2957;DHT22;1488;51.548;7.222;2023-08-20T02:49:32;25.30;93.60
2957;DHT22;1488;51.548;7.222;2023-08-20T02:52:01;25.30;93.50
2957;DHT22;1488;51.548;7.222;2023-08-20T02:54:29;25.30;93.60
2957;DHT22;1488;51.548;7.222;2023-08-20T02:56:57;25.30;93.60
2957;DHT22;1488;51.548;7.222;2023-08-20T02:59:24;25.30;93.60
2957;DHT22;1488;51.548;7.222;2023-08-20T03:01:51;25.40;93.60
2957;DHT22;1488;51.548;7.222;2023-08-20T03:04:18;25.30;93.60
2957;DHT22;1488;51.548;7.222;2023-08-20T03:06:45;25.30;93.60
2957;DHT22;1488;51.548;7.222;2023-08-20T03:09:11;25.30;93.60
2957;DHT22;1488;51.548;7.222;2023-08-20T03:11:39;25.30;93.50
2957;DHT22;1488;51.548;7.222;2023-08-20T03:14:06;25.30;93.50
2957;DHT22;1488;51.548;7.222;2023-08-20T03:16:33;25.30;93.60
2957;DHT22;1488;51.548;7.222;2023-08-20T03:19:00;25.30;93.60
2957;DHT22;1488;51.548;7.222;2023-08-20T03:21:27;25.30;93.50
2957;DHT22;1488;51.548;7.222;2023-08-20T03:23:53;25.30;93.50
2957;DHT22;1488;51.548;7.222;2023-08-20T03:26:20;25.30;93.50
2957;DHT22;1488;51.548;7.222;2023-08-20T03:28:49;25.30;93.50
2957;DHT22;1488;51.548;7.222;2023-08-20T03:31:15;25.30;93.60
2957;DHT22;1488;51.548;7.222;2023-08-20T03:33:42;25.30;93.50
2957;DHT22;1488;51.548;7.222;2023-08-20T03:36:09;25.30;93.50
2957;DHT22;1488;51.548;7.222;2023-08-20T03:38:36;25.30;93.50
2957;DHT22;1488;51.548;7.222;2023-08-20T03:41:02;25.30;93.50
2957;DHT22;1488;51.548;7.222;2023-08-20T03:43:29;25.30;93.60
2957;DHT22;1488;51.548;7.222;2023-08-20T03:45:58;25.30;93.50
2957;DHT22;1488;51.548;7.222;2023-08-20T03:48:24;25.30;93.50
2957;DHT22;1488;51.548;7.222;2023-08-20T03:50:51;25.30;93.50
2957;DHT22;1488;51.548;7.222;2023-08-20T03:53:18;25.30;93.50
2957;DHT22;1488;51.548;7.222;2023-08-20T03:55:47;25.30;93.50
2957;DHT22;1488;51.548;7.222;2023-08-20T03:58:14;25.30;93.50
2957;DHT22;1488;51.548;7.222;2023-08-20T04:00:41;25.30;93.50
2957;DHT22;1488;51.548;7.222;2023-08-20T04:03:09;25.30;93.50
2957;DHT22;1488;51.548;7.222;2023-08-20T04:05:36;25.30;93.50
2957;DHT22;1488;51.548;7.222;2023-08-20T04:08:03;25.30;93.90
2957;DHT22;1488;51.548;7.222;2023-08-20T04:10:30;25.30;93.50
2957;DHT22;1488;51.548;7.222;2023-08-20T04:12:58;25.30;93.50
2957;DHT22;1488;51.548;7.222;2023-08-20T04:15:25;25.30;93.50
2957;DHT22;1488;51.548;7.222;2023-08-20T04:17:51;25.30;93.50
2957;DHT22;1488;51.548;7.222;2023-08-20T04:20:20;25.30;93.70
2957;DHT22;1488;51.548;7.222;2023-08-20T04:22:46;25.30;93.50
2957;DHT22;1488;51.548;7.222;2023-08-20T04:25:14;25.30;93.50
2957;DHT22;1488;51.548;7.222;2023-08-20T04:27:41;25.30;93.50
2957;DHT22;1488;51.548;7.222;2023-08-20T04:30:09;25.30;93.50
2957;DHT22;1488;51.548;7.222;2023-08-20T04:32:36;25.30;93.50
2957;DHT22;1488;51.548;7.222;2023-08-20T04:35:03;25.30;93.50
2957;DHT22;1488;51.548;7.222;2023-08-20T04:37:31;25.20;93.50
2957;DHT22;1488;51.548;7.222;2023-08-20T04:39:58;25.30;93.90
2957;DHT22;1488;51.548;7.222;2023-08-20T04:42:25;25.30;93.50
2957;DHT22;1488;51.548;7.222;2023-08-20T04:44:51;25.30;93.50
2957;DHT22;1488;51.548;7.222;2023-08-20T04:47:18;25.20;93.50
2957;DHT22;1488;51.548;7.222;2023-08-20T04:49:45;25.20;93.50
2957;DHT22;1488;51.548;7.222;2023-08-20T04:52:12;25.30;93.50
2957;DHT22;1488;51.548;7.222;2023-08-20T04:54:40;25.30;93.50
2957;DHT22;1488;51.548;7.222;2023-08-20T04:57:07;25.30;93.50
2957;DHT22;1488;51.548;7.222;2023-08-20T04:59:34;25.30;93.50
2957;DHT22;1488;51.548;7.222;2023-08-20T05:02:01;25.30;93.50
2957;DHT22;1488;51.548;7.222;2023-08-20T05:04:28;25.30;93.50
2957;DHT22;1488;51.548;7.222;2023-08-20T05:06:54;25.20;93.50
2957;DHT22;1488;51.548;7.222;2023-08-20T05:09:21;25.30;93.50
2957;DHT22;1488;51.548;7.222;2023-08-20T05:11:50;25.20;93.50
2957;DHT22;1488;51.548;7.222;2023-08-20T05:14:16;25.20;93.50
2957;DHT22;1488;51.548;7.222;2023-08-20T05:16:43;25.20;93.50
2957;DHT22;1488;51.548;7.222;2023-08-20T05:19:10;25.20;93.50
2957;DHT22;1488;51.548;7.222;2023-08-20T05:21:37;25.30;93.50
2957;DHT22;1488;51.548;7.222;2023-08-20T05:24:04;25.20;93.50
2957;DHT22;1488;51.548;7.222;2023-08-20T05:26:31;25.20;93.50
2957;DHT22;1488;51.548;7.222;2023-08-20T05:28:59;25.20;93.50
2957;DHT22;1488;51.548;7.222;2023-08-20T05:31:26;25.20;93.50
2957;DHT22;1488;51.548;7.222;2023-08-20T05:33:53;25.20;93.50
2957;DHT22;1488;51.548;7.222;2023-08-20T05:36:20;25.20;93.90
2957;DHT22;1488;51.548;7.222;2023-08-20T05:38:47;25.20;93.50
2957;DHT22;1488;51.548;7.222;2023-08-20T05:41:14;25.20;93.50
2957;DHT22;1488;51.548;7.222;2023-08-20T05:43:41;25.20;93.50
2957;DHT22;1488;51.548;7.222;2023-08-20T05:46:09;25.20;93.50
2957;DHT22;1488;51.548;7.222;2023-08-20T05:48:36;25.20;93.40
2957;DHT22;1488;51.548;7.222;2023-08-20T05:51:02;25.20;93.40
2957;DHT22;1488;51.548;7.222;2023-08-20T05:53:29;25.20;93.30
2957;DHT22;1488;51.548;7.222;2023-08-20T05:55:56;25.20;93.30
2957;DHT22;1488;51.548;7.222;2023-08-20T05:58:23;25.20;93.30
2957;DHT22;1488;51.548;7.222;2023-08-20T06:00:49;25.20;93.30
2957;DHT22;1488;51.548;7.222;2023-08-20T06:03:18;25.20;93.30
2957;DHT22;1488;51.548;7.222;2023-08-20T06:05:44;25.20;93.30
2957;DHT22;1488;51.548;7.222;2023-08-20T06:08:11;25.20;93.30
2957;DHT22;1488;51.548;7.222;2023-08-20T06:10:38;25.10;93.90
2957;DHT22;1488;51.548;7.222;2023-08-20T06:13:05;25.10;94.40
2957;DHT22;1488;51.548;7.222;2023-08-20T06:15:32;25.10;94.80
2957;DHT22;1488;51.548;7.222;2023-08-20T06:17:58;25.10;95.10
2957;DHT22;1488;51.548;7.222;2023-08-20T06:20:27;25.10;95.30
2957;DHT22;1488;51.548;7.222;2023-08-20T06:22:53;25.10;95.40
2957;DHT22;1488;51.548;7.222;2023-08-20T06:25:20;25.10;95.60
2957;DHT22;1488;51.548;7.222;2023-08-20T06:27:47;25.10;95.70
2957;DHT22;1488;51.548;7.222;2023-08-20T06:30:14;25.00;95.80
2957;DHT22;1488;51.548;7.222;2023-08-20T06:32:41;25.00;95.90
2957;DHT22;1488;51.548;7.222;2023-08-20T06:35:08;25.00;95.90
2957;DHT22;1488;51.548;7.222;2023-08-20T06:37:38;25.00;95.90
2957;DHT22;1488;51.548;7.222;2023-08-20T06:40:07;25.00;95.90
2957;DHT22;1488;51.548;7.222;2023-08-20T06:42:34;25.00;96.10
2957;DHT22;1488;51.548;7.222;2023-08-20T06:45:01;25.00;96.20
2957;DHT22;1488;51.548;7.222;2023-08-20T06:47:28;25.00;95.90
2957;DHT22;1488;51.548;7.222;2023-08-20T06:49:55;25.00;96.10
2957;DHT22;1488;51.548;7.222;2023-08-20T06:52:21;25.00;95.50
2957;DHT22;1488;51.548;7.222;2023-08-20T06:54:49;25.00;95.70
2957;DHT22;1488;51.548;7.222;2023-08-20T06:57:16;25.00;95.80
2957;DHT22;1488;51.548;7.222;2023-08-20T06:59:43;25.00;95.70
2957;DHT22;1488;51.548;7.222;2023-08-20T07:02:11;25.00;95.30
2957;DHT22;1488;51.548;7.222;2023-08-20T07:04:38;25.00;95.30
2957;DHT22;1488;51.548;7.222;2023-08-20T07:07:04;25.00;95.90
2957;DHT22;1488;51.548;7.222;2023-08-20T07:09:31;25.00;96.50
2957;DHT22;1488;51.548;7.222;2023-08-20T07:12:00;25.00;96.70
2957;DHT22;1488;51.548;7.222;2023-08-20T07:14:27;25.10;97.00
2957;DHT22;1488;51.548;7.222;2023-08-20T07:16:54;25.00;97.00
2957;DHT22;1488;51.548;7.222;2023-08-20T07:19:21;25.00;97.50
2957;DHT22;1488;51.548;7.222;2023-08-20T07:21:48;25.00;97.20
2957;DHT22;1488;51.548;7.222;2023-08-20T07:24:15;25.00;97.30
2957;DHT22;1488;51.548;7.222;2023-08-20T07:26:41;25.00;97.20
2957;DHT22;1488;51.548;7.222;2023-08-20T07:29:10;25.00;97.20
2957;DHT22;1488;51.548;7.222;2023-08-20T07:31:37;25.10;97.20
2957;DHT22;1488;51.548;7.222;2023-08-20T07:34:04;25.10;97.20
2957;DHT22;1488;51.548;7.222;2023-08-20T07:36:31;25.10;97.10
2957;DHT22;1488;51.548;7.222;2023-08-20T07:39:00;25.10;97.20
2957;DHT22;1488;51.548;7.222;2023-08-20T07:41:27;25.20;97.20
2957;DHT22;1488;51.548;7.222;2023-08-20T07:43:53;25.20;96.90
2957;DHT22;1488;51.548;7.222;2023-08-20T07:46:21;25.20;96.50
2957;DHT22;1488;51.548;7.222;2023-08-20T07:48:48;25.20;96.60
2957;DHT22;1488;51.548;7.222;2023-08-20T07:51:15;25.20;96.80
2957;DHT22;1488;51.548;7.222;2023-08-20T07:53:42;25.20;96.70
2957;DHT22;1488;51.548;7.222;2023-08-20T07:56:09;25.20;96.50
2957;DHT22;1488;51.548;7.222;2023-08-20T07:58:35;25.20;96.60
2957;DHT22;1488;51.548;7.222;2023-08-20T08:01:02;25.20;96.20
2957;DHT22;1488;51.548;7.222;2023-08-20T08:03:31;25.20;96.20
2957;DHT22;1488;51.548;7.222;2023-08-20T08:05:57;25.20;96.00
2957;DHT22;1488;51.548;7.222;2023-08-20T08:08:24;25.20;95.90
2957;DHT22;1488;51.548;7.222;2023-08-20T08:10:51;25.20;96.20
2957;DHT22;1488;51.548;7.222;2023-08-20T08:13:20;25.20;95.80
2957;DHT22;1488;51.548;7.222;2023-08-20T08:15:47;25.20;95.90
2957;DHT22;1488;51.548;7.222;2023-08-20T08:18:14;25.20;95.90
2957;DHT22;1488;51.548;7.222;2023-08-20T08:20:42;25.20;96.10
2957;DHT22;1488;51.548;7.222;2023-08-20T08:23:09;25.20;95.70
2957;DHT22;1488;51.548;7.222;2023-08-20T08:25:36;25.20;95.60
2957;DHT22;1488;51.548;7.222;2023-08-20T08:28:04;25.20;95.50
2957;DHT22;1488;51.548;7.222;2023-08-20T08:30:31;25.20;95.40
2957;DHT22;1488;51.548;7.222;2023-08-20T08:32:58;25.20;95.30
2957;DHT22;1488;51.548;7.222;2023-08-20T08:35:25;25.20;95.30
2957;DHT22;1488;51.548;7.222;2023-08-20T08:37:53;25.20;95.30
2957;DHT22;1488;51.548;7.222;2023-08-20T08:40:20;25.20;95.30
2957;DHT22;1488;51.548;7.222;2023-08-20T08:42:48;25.20;95.30
2957;DHT22;1488;51.548;7.222;2023-08-20T08:45:18;25.20;95.20
2957;DHT22;1488;51.548;7.222;2023-08-20T08:47:46;25.30;95.20
2957;DHT22;1488;51.548;7.222;2023-08-20T08:50:13;25.30;95.30
2957;DHT22;1488;51.548;7.222;2023-08-20T08:52:41;25.20;95.40
2957;DHT22;1488;51.548;7.222;2023-08-20T08:55:10;25.30;95.40
2957;DHT22;1488;51.548;7.222;2023-08-20T08:57:38;25.30;95.40
2957;DHT22;1488;51.548;7.222;2023-08-20T09:00:05;25.30;95.50
2957;DHT22;1488;51.548;7.222;2023-08-20T09:02:33;25.30;95.40
2957;DHT22;1488;51.548;7.222;2023-08-20T09:04:59;25.30;95.40
2957;DHT22;1488;51.548;7.222;2023-08-20T09:07:26;25.30;95.40
2957;DHT22;1488;51.548;7.222;2023-08-20T09:09:57;25.30;95.40
2957;DHT22;1488;51.548;7.222;2023-08-20T09:12:27;25.30;95.40
2957;DHT22;1488;51.548;7.222;2023-08-20T09:14:54;25.30;95.40
2957;DHT22;1488;51.548;7.222;2023-08-20T09:17:25;25.30;95.40
2957;DHT22;1488;51.548;7.222;2023-08-20T09:19:55;25.30;95.70
2957;DHT22;1488;51.548;7.222;2023-08-20T09:22:23;25.40;95.40
2957;DHT22;1488;51.548;7.222;2023-08-20T09:24:53;25.30;95.30
2957;DHT22;1488;51.548;7.222;2023-08-20T09:27:21;25.40;95.30
2957;DHT22;1488;51.548;7.222;2023-08-20T09:29:50;25.30;95.30
2957;DHT22;1488;51.548;7.222;2023-08-20T09:32:19;25.40;95.30
2957;DHT22;1488;51.548;7.222;2023-08-20T09:34:47;25.40;95.30
2957;DHT22;1488;51.548;7.222;2023-08-20T09:37:16;25.40;95.30
2957;DHT22;1488;51.548;7.222;2023-08-20T09:39:43;25.40;95.30
2957;DHT22;1488;51.548;7.222;2023-08-20T09:42:11;25.40;95.30
2957;DHT22;1488;51.548;7.222;2023-08-20T09:44:39;25.40;95.30
2957;DHT22;1488;51.548;7.222;2023-08-20T09:47:09;25.40;95.30
2957;DHT22;1488;51.548;7.222;2023-08-20T09:49:40;25.40;95.30
2957;DHT22;1488;51.548;7.222;2023-08-20T09:52:08;25.40;95.30
2957;DHT22;1488;51.548;7.222;2023-08-20T09:54:45;25.40;95.30
2957;DHT22;1488;51.548;7.222;2023-08-20T09:57:18;25.40;95.30
2957;DHT22;1488;51.548;7.222;2023-08-20T09:59:47;25.40;95.30
2957;DHT22;1488;51.548;7.222;2023-08-20T10:02:16;25.40;95.30
2957;DHT22;1488;51.548;7.222;2023-08-20T10:04:43;25.40;95.30
2957;DHT22;1488;51.548;7.222;2023-08-20T10:07:10;25.40;95.70
2957;DHT22;1488;51.548;7.222;2023-08-20T10:09:38;25.40;95.30
2957;DHT22;1488;51.548;7.222;2023-08-20T10:12:06;25.40;95.20
2957;DHT22;1488;51.548;7.222;2023-08-20T10:14:33;25.40;95.20
2957;DHT22;1488;51.548;7.222;2023-08-20T10:17:06;25.40;95.20
2957;DHT22;1488;51.548;7.222;2023-08-20T10:19:35;25.40;95.20
2957;DHT22;1488;51.548;7.222;2023-08-20T10:22:03;25.40;95.20
2957;DHT22;1488;51.548;7.222;2023-08-20T10:24:40;25.40;95.20
2957;DHT22;1488;51.548;7.222;2023-08-20T10:27:08;25.40;95.20
2957;DHT22;1488;51.548;7.222;2023-08-20T10:29:36;25.40;95.20
2957;DHT22;1488;51.548;7.222;2023-08-20T10:32:05;25.40;95.20
2957;DHT22;1488;51.548;7.222;2023-08-20T10:34:33;25.40;95.20
2957;DHT22;1488;51.548;7.222;2023-08-20T10:37:03;25.40;95.20
2957;DHT22;1488;51.548;7.222;2023-08-20T10:39:30;25.40;95.20
2957;DHT22;1488;51.548;7.222;2023-08-20T10:47:07;25.40;95.00
2957;DHT22;1488;51.548;7.222;2023-08-20T10:52:13;25.40;95.00
2957;DHT22;1488;51.548;7.222;2023-08-20T10:54:40;25.40;95.00
2957;DHT22;1488;51.548;7.222;2023-08-20T10:57:07;25.40;95.10
2957;DHT22;1488;51.548;7.222;2023-08-20T10:59:39;25.40;95.40
2957;DHT22;1488;51.548;7.222;2023-08-20T11:02:11;25.30;95.20
2957;DHT22;1488;51.548;7.222;2023-08-20T11:04:41;25.40;95.20
2957;DHT22;1488;51.548;7.222;2023-08-20T11:07:08;25.40;95.10
2957;DHT22;1488;51.548;7.222;2023-08-20T11:09:36;25.40;95.10
2957;DHT22;1488;51.548;7.222;2023-08-20T11:12:05;25.40;95.10
2957;DHT22;1488;51.548;7.222;2023-08-20T11:14:34;25.40;95.00
2957;DHT22;1488;51.548;7.222;2023-08-20T11:17:02;25.40;95.00
2957;DHT22;1488;51.548;7.222;2023-08-20T11:19:29;25.30;95.00
2957;DHT22;1488;51.548;7.222;2023-08-20T11:21:57;25.40;95.00
2957;DHT22;1488;51.548;7.222;2023-08-20T11:24:28;25.40;95.10
2957;DHT22;1488;51.548;7.222;2023-08-20T11:26:56;25.40;95.20
2957;DHT22;1488;51.548;7.222;2023-08-20T11:29:25;25.40;95.10
2957;DHT22;1488;51.548;7.222;2023-08-20T11:31:52;25.40;95.00
2957;DHT22;1488;51.548;7.222;2023-08-20T11:34:19;25.40;95.20
2957;DHT22;1488;51.548;7.222;2023-08-20T11:36:46;25.40;95.20
2957;DHT22;1488;51.548;7.222;2023-08-20T11:39:13;25.40;95.20
2957;DHT22;1488;51.548;7.222;2023-08-20T11:41:40;25.40;95.60
2957;DHT22;1488;51.548;7.222;2023-08-20T11:44:09;25.40;95.20
2957;DHT22;1488;51.548;7.222;2023-08-20T11:46:42;25.40;95.20
2957;DHT22;1488;51.548;7.222;2023-08-20T11:49:10;25.50;95.20
2957;DHT22;1488;51.548;7.222;2023-08-20T11:51:38;25.40;95.20
2957;DHT22;1488;51.548;7.222;2023-08-20T11:54:05;25.40;95.60
2957;DHT22;1488;51.548;7.222;2023-08-20T11:56:34;25.50;95.20
2957;DHT22;1488;51.548;7.222;2023-08-20T11:59:01;25.50;95.20
2957;DHT22;1488;51.548;7.222;2023-08-20T12:01:31;25.50;95.20
2957;DHT22;1488;51.548;7.222;2023-08-20T12:04:03;25.50;95.20
2957;DHT22;1488;51.548;7.222;2023-08-20T12:06:30;25.50;95.20
2957;DHT22;1488;51.548;7.222;2023-08-20T12:08:57;25.50;95.20
2957;DHT22;1488;51.548;7.222;2023-08-20T12:11:24;25.50;95.20
2957;DHT22;1488;51.548;7.222;2023-08-20T12:13:52;25.50;95.20
2957;DHT22;1488;51.548;7.222;2023-08-20T12:16:22;25.50;95.20
2957;DHT22;1488;51.548;7.222;2023-08-20T12:18:51;25.50;95.20
2957;DHT22;1488;51.548;7.222;2023-08-20T12:21:18;25.50;95.20
2957;DHT22;1488;51.548;7.222;2023-08-20T12:23:45;25.50;95.20
2957;DHT22;1488;51.548;7.222;2023-08-20T12:26:11;25.50;95.20
2957;DHT22;1488;51.548;7.222;2023-08-20T12:28:38;25.50;95.20
2957;DHT22;1488;51.548;7.222;2023-08-20T12:31:07;25.50;95.20
2957;DHT22;1488;51.548;7.222;2023-08-20T12:33:33;25.50;95.20
2957;DHT22;1488;51.548;7.222;2023-08-20T12:36:02;25.50;95.60
2957;DHT22;1488;51.548;7.222;2023-08-20T12:38:29;25.50;95.20
2957;DHT22;1488;51.548;7.222;2023-08-20T12:40:59;25.50;95.20
2957;DHT22;1488;51.548;7.222;2023-08-20T12:43:26;25.50;95.20
2957;DHT22;1488;51.548;7.222;2023-08-20T12:45:53;25.50;95.20
2957;DHT22;1488;51.548;7.222;2023-08-20T12:48:20;25.50;95.20
2957;DHT22;1488;51.548;7.222;2023-08-20T12:50:46;25.50;95.20
2957;DHT22;1488;51.548;7.222;2023-08-20T12:53:15;25.50;95.20
2957;DHT22;1488;51.548;7.222;2023-08-20T12:55:41;25.50;95.10
2957;DHT22;1488;51.548;7.222;2023-08-20T12:58:08;25.50;95.10
2957;DHT22;1488;51.548;7.222;2023-08-20T13:00:35;25.50;95.10
2957;DHT22;1488;51.548;7.222;2023-08-20T13:03:02;25.50;95.20
2957;DHT22;1488;51.548;7.222;2023-08-20T13:05:30;25.50;95.20
2957;DHT22;1488;51.548;7.222;2023-08-20T13:07:57;25.50;95.20
2957;DHT22;1488;51.548;7.222;2023-08-20T13:10:27;25.50;95.20
2957;DHT22;1488;51.548;7.222;2023-08-20T13:12:57;25.50;95.20
2957;DHT22;1488;51.548;7.222;2023-08-20T13:15:27;25.60;95.20
2957;DHT22;1488;51.548;7.222;2023-08-20T13:17:54;25.50;95.10
2957;DHT22;1488;51.548;7.222;2023-08-20T13:20:21;25.60;95.20
2957;DHT22;1488;51.548;7.222;2023-08-20T13:22:49;25.60;95.20
2957;DHT22;1488;51.548;7.222;2023-08-20T13:25:16;25.60;95.20
2957;DHT22;1488;51.548;7.222;2023-08-20T13:27:45;25.60;95.20
2957;DHT22;1488;51.548;7.222;2023-08-20T13:30:12;25.60;95.20
2957;DHT22;1488;51.548;7.222;2023-08-20T13:32:39;25.60;95.20
2957;DHT22;1488;51.548;7.222;2023-08-20T13:35:06;25.60;95.20
2957;DHT22;1488;51.548;7.222;2023-08-20T13:37:33;25.60;95.20
2957;DHT22;1488;51.548;7.222;2023-08-20T13:40:00;25.60;95.20
2957;DHT22;1488;51.548;7.222;2023-08-20T13:42:29;25.60;95.20
2957;DHT22;1488;51.548;7.222;2023-08-20T13:44:57;25.60;95.20
2957;DHT22;1488;51.548;7.222;2023-08-20T13:47:24;25.60;95.20
2957;DHT22;1488;51.548;7.222;2023-08-20T13:49:50;25.60;95.20
2957;DHT22;1488;51.548;7.222;2023-08-20T13:52:17;25.60;95.20
2957;DHT22;1488;51.548;7.222;2023-08-20T13:54:44;25.60;95.20
2957;DHT22;1488;51.548;7.222;2023-08-20T13:57:11;25.60;95.20
2957;DHT22;1488;51.548;7.222;2023-08-20T13:59:37;25.60;95.20
2957;DHT22;1488;51.548;7.222;2023-08-20T14:02:06;25.60;95.20
2957;DHT22;1488;51.548;7.222;2023-08-20T14:04:33;25.60;95.10
2957;DHT22;1488;51.548;7.222;2023-08-20T14:07:00;25.60;95.50
2957;DHT22;1488;51.548;7.222;2023-08-20T14:09:27;25.60;95.20
2957;DHT22;1488;51.548;7.222;2023-08-20T14:11:54;25.60;95.50
2957;DHT22;1488;51.548;7.222;2023-08-20T14:14:21;25.60;95.20
2957;DHT22;1488;51.548;7.222;2023-08-20T14:16:48;25.60;95.10
2957;DHT22;1488;51.548;7.222;2023-08-20T14:19:16;25.60;95.20
2957;DHT22;1488;51.548;7.222;2023-08-20T14:21:43;25.60;95.20
2957;DHT22;1488;51.548;7.222;2023-08-20T14:24:10;25.70;95.20
2957;DHT22;1488;51.548;7.222;2023-08-20T14:26:36;25.70;95.20
2957;DHT22;1488;51.548;7.222;2023-08-20T14:29:03;25.70;95.20
2957;DHT22;1488;51.548;7.222;2023-08-20T14:31:31;25.70;95.20
2957;DHT22;1488;51.548;7.222;2023-08-20T14:33:57;25.70;95.20
2957;DHT22;1488;51.548;7.222;2023-08-20T14:36:26;25.70;95.20
2957;DHT22;1488;51.548;7.222;2023-08-20T14:38:52;25.60;95.50
2957;DHT22;1488;51.548;7.222;2023-08-20T14:41:19;25.70;95.20
2957;DHT22;1488;51.548;7.222;2023-08-20T14:43:46;25.70;95.20
2957;DHT22;1488;51.548;7.222;2023-08-20T14:46:13;25.70;95.20
2957;DHT22;1488;51.548;7.222;2023-08-20T14:48:40;25.70;95.20
2957;DHT22;1488;51.548;7.222;2023-08-20T14:51:08;25.70;95.20
2957;DHT22;1488;51.548;7.222;2023-08-20T14:53:36;25.70;95.20
2957;DHT22;1488;51.548;7.222;2023-08-20T14:56:03;25.70;95.20
2957;DHT22;1488;51.548;7.222;2023-08-20T14:58:30;25.60;95.10
2957;DHT22;1488;51.548;7.222;2023-08-20T15:00:57;25.70;95.10
2957;DHT22;1488;51.548;7.222;2023-08-20T15:03:23;25.70;95.10
2957;DHT22;1488;51.548;7.222;2023-08-20T15:05:50;25.70;95.10
2957;DHT22;1488;51.548;7.222;2023-08-20T15:08:17;25.70;95.20
2957;DHT22;1488;51.548;7.222;2023-08-20T15:10:48;25.70;95.10
2957;DHT22;1488;51.548;7.222;2023-08-20T15:13:22;25.70;95.10
2957;DHT22;1488;51.548;7.222;2023-08-20T15:15:51;25.70;95.10
2957;DHT22;1488;51.548;7.222;2023-08-20T15:18:18;25.70;95.20
2957;DHT22;1488;51.548;7.222;2023-08-20T15:20:44;25.70;95.10
2957;DHT22;1488;51.548;7.222;2023-08-20T15:23:11;25.60;95.10
2957;DHT22;1488;51.548;7.222;2023-08-20T15:25:38;25.70;95.10
2957;DHT22;1488;51.548;7.222;2023-08-20T15:28:07;25.70;95.10
2957;DHT22;1488;51.548;7.222;2023-08-20T15:30:33;25.70;95.10
2957;DHT22;1488;51.548;7.222;2023-08-20T15:33:00;25.70;95.10
2957;DHT22;1488;51.548;7.222;2023-08-20T15:35:29;25.70;95.20
2957;DHT22;1488;51.548;7.222;2023-08-20T15:37:55;25.70;95.10
2957;DHT22;1488;51.548;7.222;2023-08-20T15:40:22;25.60;95.10
2957;DHT22;1488;51.548;7.222;2023-08-20T15:42:49;25.70;95.20
2957;DHT22;1488;51.548;7.222;2023-08-20T15:45:17;25.70;95.10
2957;DHT22;1488;51.548;7.222;2023-08-20T15:47:44;25.70;95.10
2957;DHT22;1488;51.548;7.222;2023-08-20T15:50:11;25.70;95.20
2957;DHT22;1488;51.548;7.222;2023-08-20T15:52:38;25.70;95.20
2957;DHT22;1488;51.548;7.222;2023-08-20T15:55:05;25.70;95.10
2957;DHT22;1488;51.548;7.222;2023-08-20T15:57:32;25.70;95.10
2957;DHT22;1488;51.548;7.222;2023-08-20T15:59:59;25.70;95.10
2957;DHT22;1488;51.548;7.222;2023-08-20T16:02:27;25.70;95.50
2957;DHT22;1488;51.548;7.222;2023-08-20T16:04:54;25.70;95.20
2957;DHT22;1488;51.548;7.222;2023-08-20T16:07:21;25.70;95.10
2957;DHT22;1488;51.548;7.222;2023-08-20T16:09:48;25.70;95.10
2957;DHT22;1488;51.548;7.222;2023-08-20T16:12:15;25.70;95.10